SBI142 UIII-UNNT
Flight info
| Callsign | SBI142 |
|---|---|
| Flight time | N/A |
| Altitude | 38000 |
| Route | BOGRA5C BOGRA A815 TUTEK M97 LIBZI R497 LONKA A822 LAPAK B151 KESED B926 NATIR NATIR1M |
| Aircraft | B738/M-SDE2E3FGHIRWXY/LB1 |
Departure
| Time | 2026-04-27 15:45 |
|---|---|
| Airport | Irkutsk International Airport (UIII) |
Arrival
| Time | N/A |
|---|---|
| Airport | Novosibirsk Tolmachevo Airport (UNNT) |
| Time | Latitude | Longitude | Altitude | Speed | Heading |
|---|---|---|---|---|---|
| 2026-04-27 14:58 | 52.27154 | 104.36634 | 1650 ft | 0 kts | 199° |
| 2026-04-27 15:36 | 52.27151 | 104.36632 | 1650 ft | 3 kts | 197° |
| 2026-04-27 15:36 | 52.27121 | 104.36619 | 1650 ft | 5 kts | 182° |
| 2026-04-27 15:36 | 52.27098 | 104.36652 | 1650 ft | 5 kts | 118° |
| 2026-04-27 15:36 | 52.27086 | 104.36700 | 1650 ft | 5 kts | 110° |
| 2026-04-27 15:37 | 52.27075 | 104.36752 | 1650 ft | 6 kts | 110° |
| 2026-04-27 15:37 | 52.27058 | 104.36826 | 1650 ft | 8 kts | 110° |
| 2026-04-27 15:37 | 52.27036 | 104.36927 | 1650 ft | 10 kts | 110° |
| 2026-04-27 15:37 | 52.27011 | 104.37034 | 1650 ft | 10 kts | 110° |
| 2026-04-27 15:38 | 52.26988 | 104.37138 | 1650 ft | 10 kts | 105° |
| 2026-04-27 15:38 | 52.27007 | 104.37237 | 1650 ft | 9 kts | 56° |
| 2026-04-27 15:38 | 52.27045 | 104.37322 | 1650 ft | 9 kts | 53° |
| 2026-04-27 15:38 | 52.27082 | 104.37404 | 1650 ft | 9 kts | 54° |
| 2026-04-27 15:39 | 52.27118 | 104.37485 | 1650 ft | 9 kts | 54° |
| 2026-04-27 15:39 | 52.27153 | 104.37563 | 1651 ft | 8 kts | 54° |
| 2026-04-27 15:39 | 52.27184 | 104.37641 | 1652 ft | 8 kts | 66° |
| 2026-04-27 15:39 | 52.27178 | 104.37721 | 1652 ft | 7 kts | 112° |
| 2026-04-27 15:40 | 52.27145 | 104.37845 | 1653 ft | 31 kts | 113° |
| 2026-04-27 15:40 | 52.27097 | 104.38029 | 1652 ft | 14 kts | 113° |
| 2026-04-27 15:40 | 52.27049 | 104.38111 | 1651 ft | 9 kts | 172° |
| 2026-04-27 15:40 | 52.26995 | 104.38082 | 1651 ft | 7 kts | 204° |
| 2026-04-27 15:41 | 52.26953 | 104.38052 | 1650 ft | 6 kts | 204° |
| 2026-04-27 15:41 | 52.26913 | 104.38022 | 1650 ft | 6 kts | 204° |
| 2026-04-27 15:41 | 52.26873 | 104.37993 | 1650 ft | 6 kts | 205° |
| 2026-04-27 15:41 | 52.26839 | 104.37950 | 1650 ft | 7 kts | 242° |
| 2026-04-27 15:42 | 52.26845 | 104.37869 | 1650 ft | 8 kts | 293° |
| 2026-04-27 15:42 | 52.26872 | 104.37772 | 1650 ft | 10 kts | 294° |
| 2026-04-27 15:42 | 52.26903 | 104.37655 | 1650 ft | 12 kts | 294° |
| 2026-04-27 15:42 | 52.26939 | 104.37522 | 1650 ft | 14 kts | 293° |
| 2026-04-27 15:43 | 52.26977 | 104.37372 | 1650 ft | 15 kts | 292° |
| 2026-04-27 15:43 | 52.27006 | 104.37283 | 1650 ft | 5 kts | 322° |
| 2026-04-27 15:43 | 52.27037 | 104.37307 | 1650 ft | 6 kts | 52° |
| 2026-04-27 15:43 | 52.27067 | 104.37372 | 1650 ft | 9 kts | 53° |
| 2026-04-27 15:44 | 52.27112 | 104.37472 | 1650 ft | 13 kts | 54° |
| 2026-04-27 15:44 | 52.27169 | 104.37593 | 1651 ft | 12 kts | 49° |
| 2026-04-27 15:44 | 52.27186 | 104.37692 | 1652 ft | 8 kts | 106° |
| 2026-04-27 15:44 | 52.27158 | 104.37797 | 1652 ft | 19 kts | 114° |
| 2026-04-27 15:45 | 52.27010 | 104.38355 | 1649 ft | 89 kts | 113° |
| 2026-04-27 15:45 | 52.26677 | 104.39605 | 1650 ft | 148 kts | 114° |
| 2026-04-27 15:45 | 52.26233 | 104.41280 | 2044 ft | 166 kts | 113° |
| 2026-04-27 15:45 | 52.25947 | 104.42431 | 2609 ft | 163 kts | 113° |
| 2026-04-27 15:46 | 52.25674 | 104.44181 | 3467 ft | 169 kts | 92° |
| 2026-04-27 15:46 | 52.26213 | 104.45986 | 4079 ft | 191 kts | 42° |
| 2026-04-27 15:46 | 52.27850 | 104.47102 | 5078 ft | 197 kts | 14° |
| 2026-04-27 15:46 | 52.28751 | 104.47556 | 5453 ft | 208 kts | 19° |
| 2026-04-27 15:47 | 52.30685 | 104.48764 | 5752 ft | 241 kts | 21° |
| 2026-04-27 15:47 | 52.32301 | 104.49822 | 6143 ft | 256 kts | 21° |
| 2026-04-27 15:47 | 52.33402 | 104.50548 | 6597 ft | 258 kts | 21° |
| 2026-04-27 15:47 | 52.35090 | 104.51666 | 7147 ft | 270 kts | 21° |
| 2026-04-27 15:48 | 52.36867 | 104.52845 | 7818 ft | 279 kts | 21° |
| 2026-04-27 15:48 | 52.38672 | 104.54047 | 8703 ft | 279 kts | 21° |
| 2026-04-27 15:48 | 52.40471 | 104.55248 | 9629 ft | 280 kts | 21° |
| 2026-04-27 15:49 | 52.44178 | 104.57722 | 10758 ft | 306 kts | 21° |
| 2026-04-27 15:49 | 52.46227 | 104.59091 | 10954 ft | 330 kts | 21° |
| 2026-04-27 15:49 | 52.48450 | 104.60415 | 11241 ft | 347 kts | 11° |
| 2026-04-27 15:49 | 52.50837 | 104.60483 | 11874 ft | 351 kts | 349° |
| 2026-04-27 15:50 | 52.53168 | 104.59266 | 12676 ft | 351 kts | 338° |
| 2026-04-27 15:50 | 52.55452 | 104.57767 | 13453 ft | 354 kts | 338° |
| 2026-04-27 15:50 | 52.57760 | 104.56261 | 14169 ft | 358 kts | 338° |
| 2026-04-27 15:50 | 52.60103 | 104.54765 | 14829 ft | 362 kts | 339° |
| 2026-04-27 15:51 | 52.62434 | 104.53294 | 15481 ft | 365 kts | 339° |
| 2026-04-27 15:51 | 52.64819 | 104.51793 | 16134 ft | 368 kts | 339° |
| 2026-04-27 15:51 | 52.67220 | 104.50282 | 16783 ft | 372 kts | 339° |
| 2026-04-27 15:51 | 52.69647 | 104.48752 | 17424 ft | 375 kts | 339° |
| 2026-04-27 15:52 | 52.72098 | 104.47205 | 18049 ft | 379 kts | 339° |
| 2026-04-27 15:52 | 52.74538 | 104.45511 | 18645 ft | 382 kts | 331° |
| 2026-04-27 15:52 | 52.76624 | 104.42764 | 19176 ft | 386 kts | 316° |
| 2026-04-27 15:52 | 52.78521 | 104.39602 | 19749 ft | 388 kts | 315° |
| 2026-04-27 15:53 | 52.80423 | 104.36397 | 20280 ft | 392 kts | 315° |
| 2026-04-27 15:53 | 52.82346 | 104.33160 | 20805 ft | 395 kts | 315° |
| 2026-04-27 15:53 | 52.84283 | 104.29913 | 21332 ft | 398 kts | 315° |
| 2026-04-27 15:53 | 52.86239 | 104.26646 | 21832 ft | 401 kts | 315° |
| 2026-04-27 15:54 | 52.88213 | 104.23358 | 22304 ft | 404 kts | 316° |
| 2026-04-27 15:54 | 52.90204 | 104.20043 | 22806 ft | 408 kts | 316° |
| 2026-04-27 15:54 | 52.92185 | 104.16744 | 23295 ft | 410 kts | 316° |
| 2026-04-27 15:54 | 52.94205 | 104.13377 | 23775 ft | 413 kts | 316° |
| 2026-04-27 15:55 | 52.96234 | 104.09990 | 24165 ft | 415 kts | 316° |
| 2026-04-27 15:55 | 52.98277 | 104.06576 | 24592 ft | 417 kts | 316° |
| 2026-04-27 15:55 | 53.00323 | 104.03150 | 25004 ft | 419 kts | 316° |
| 2026-04-27 15:55 | 53.02377 | 103.99706 | 25402 ft | 421 kts | 316° |
| 2026-04-27 15:56 | 53.04439 | 103.96245 | 25786 ft | 423 kts | 316° |
| 2026-04-27 15:56 | 53.06514 | 103.92754 | 26160 ft | 425 kts | 316° |
| 2026-04-27 15:56 | 53.08601 | 103.89240 | 26531 ft | 427 kts | 316° |
| 2026-04-27 15:56 | 53.10696 | 103.85708 | 26887 ft | 429 kts | 316° |
| 2026-04-27 15:57 | 53.12791 | 103.82170 | 27295 ft | 429 kts | 316° |
| 2026-04-27 15:57 | 53.14939 | 103.78705 | 27644 ft | 430 kts | 323° |
| 2026-04-27 15:57 | 53.17497 | 103.76180 | 27944 ft | 429 kts | 337° |
| 2026-04-27 15:57 | 53.20231 | 103.74167 | 28316 ft | 430 kts | 337° |
| 2026-04-27 15:58 | 53.22964 | 103.72113 | 28645 ft | 432 kts | 336° |
| 2026-04-27 15:58 | 53.25700 | 103.70015 | 28964 ft | 434 kts | 336° |
| 2026-04-27 15:58 | 53.28408 | 103.67910 | 29268 ft | 435 kts | 336° |